sensor_id;sensor_type;location;lat;lon;timestamp;temperature;humidity
59855;DHT22;45732;52.850;6.896;2023-05-27T00:02:07;9.70;99.90
59855;DHT22;45732;52.850;6.896;2023-05-27T00:04:33;9.70;99.90
59855;DHT22;45732;52.850;6.896;2023-05-27T00:06:59;9.70;99.90
59855;DHT22;45732;52.850;6.896;2023-05-27T00:09:24;9.70;99.90
59855;DHT22;45732;52.850;6.896;2023-05-27T00:11:50;9.70;99.90
59855;DHT22;45732;52.850;6.896;2023-05-27T00:14:16;9.60;99.90
59855;DHT22;45732;52.850;6.896;2023-05-27T00:16:43;9.40;99.90
59855;DHT22;45732;52.850;6.896;2023-05-27T00:19:09;9.30;99.90
59855;DHT22;45732;52.850;6.896;2023-05-27T00:21:34;9.30;99.90
59855;DHT22;45732;52.850;6.896;2023-05-27T00:26:26;9.30;99.90
59855;DHT22;45732;52.850;6.896;2023-05-27T00:28:52;9.30;99.90
59855;DHT22;45732;52.850;6.896;2023-05-27T00:31:18;9.30;99.90
59855;DHT22;45732;52.850;6.896;2023-05-27T00:33:44;9.30;99.90
59855;DHT22;45732;52.850;6.896;2023-05-27T00:36:10;9.20;99.90
59855;DHT22;45732;52.850;6.896;2023-05-27T00:38:35;9.20;99.90
59855;DHT22;45732;52.850;6.896;2023-05-27T00:41:03;9.20;99.90
59855;DHT22;45732;52.850;6.896;2023-05-27T00:43:29;9.30;99.90
59855;DHT22;45732;52.850;6.896;2023-05-27T00:45:58;9.30;99.90
59855;DHT22;45732;52.850;6.896;2023-05-27T00:48:24;9.20;99.90
59855;DHT22;45732;52.850;6.896;2023-05-27T00:50:50;9.10;99.90
59855;DHT22;45732;52.850;6.896;2023-05-27T00:53:16;9.10;99.90
59855;DHT22;45732;52.850;6.896;2023-05-27T00:55:43;9.10;99.90
59855;DHT22;45732;52.850;6.896;2023-05-27T00:58:09;9.00;99.90
59855;DHT22;45732;52.850;6.896;2023-05-27T01:00:35;9.00;99.90
59855;DHT22;45732;52.850;6.896;2023-05-27T01:03:05;8.90;99.90
59855;DHT22;45732;52.850;6.896;2023-05-27T01:05:32;8.90;99.90
59855;DHT22;45732;52.850;6.896;2023-05-27T01:08:03;8.90;99.90
59855;DHT22;45732;52.850;6.896;2023-05-27T01:10:51;9.00;99.90
59855;DHT22;45732;52.850;6.896;2023-05-27T01:13:41;9.00;99.90
59855;DHT22;45732;52.850;6.896;2023-05-27T01:16:13;8.90;99.90
59855;DHT22;45732;52.850;6.896;2023-05-27T01:18:42;9.00;99.90
59855;DHT22;45732;52.850;6.896;2023-05-27T01:21:15;9.00;99.90
59855;DHT22;45732;52.850;6.896;2023-05-27T01:23:42;9.00;99.90
59855;DHT22;45732;52.850;6.896;2023-05-27T01:26:08;9.00;99.90
59855;DHT22;45732;52.850;6.896;2023-05-27T01:28:34;8.90;99.90
59855;DHT22;45732;52.850;6.896;2023-05-27T01:31:13;8.90;99.90
59855;DHT22;45732;52.850;6.896;2023-05-27T01:33:43;8.90;99.90
59855;DHT22;45732;52.850;6.896;2023-05-27T01:36:14;8.90;99.90
59855;DHT22;45732;52.850;6.896;2023-05-27T01:38:43;8.90;99.90
59855;DHT22;45732;52.850;6.896;2023-05-27T01:41:10;8.90;99.90
59855;DHT22;45732;52.850;6.896;2023-05-27T01:43:37;8.90;99.90
59855;DHT22;45732;52.850;6.896;2023-05-27T01:46:04;8.90;99.90
59855;DHT22;45732;52.850;6.896;2023-05-27T01:48:30;8.90;99.90
59855;DHT22;45732;52.850;6.896;2023-05-27T01:50:56;8.90;99.90
59855;DHT22;45732;52.850;6.896;2023-05-27T01:53:21;8.80;99.90
59855;DHT22;45732;52.850;6.896;2023-05-27T01:55:47;8.80;99.90
59855;DHT22;45732;52.850;6.896;2023-05-27T01:58:13;8.80;99.90
59855;DHT22;45732;52.850;6.896;2023-05-27T02:00:38;8.80;99.90
59855;DHT22;45732;52.850;6.896;2023-05-27T02:03:04;8.80;99.90
59855;DHT22;45732;52.850;6.896;2023-05-27T02:05:30;8.80;99.90
59855;DHT22;45732;52.850;6.896;2023-05-27T02:07:55;8.80;99.90
59855;DHT22;45732;52.850;6.896;2023-05-27T02:10:21;8.70;99.90
59855;DHT22;45732;52.850;6.896;2023-05-27T02:12:47;8.70;99.90
59855;DHT22;45732;52.850;6.896;2023-05-27T02:15:16;8.70;99.90
59855;DHT22;45732;52.850;6.896;2023-05-27T02:17:41;8.70;99.90
59855;DHT22;45732;52.850;6.896;2023-05-27T02:20:10;8.80;99.90
59855;DHT22;45732;52.850;6.896;2023-05-27T02:22:36;8.70;99.90
59855;DHT22;45732;52.850;6.896;2023-05-27T02:25:02;8.70;99.90
59855;DHT22;45732;52.850;6.896;2023-05-27T02:27:27;8.70;99.90
59855;DHT22;45732;52.850;6.896;2023-05-27T02:29:53;8.80;99.90
59855;DHT22;45732;52.850;6.896;2023-05-27T02:32:19;8.70;99.90
59855;DHT22;45732;52.850;6.896;2023-05-27T02:34:45;8.70;99.90
59855;DHT22;45732;52.850;6.896;2023-05-27T02:37:10;8.70;99.90
59855;DHT22;45732;52.850;6.896;2023-05-27T02:39:36;8.70;99.90
59855;DHT22;45732;52.850;6.896;2023-05-27T02:42:02;8.70;99.90
59855;DHT22;45732;52.850;6.896;2023-05-27T02:44:28;8.60;99.90
59855;DHT22;45732;52.850;6.896;2023-05-27T02:46:53;8.70;99.90
59855;DHT22;45732;52.850;6.896;2023-05-27T02:49:19;8.70;99.90
59855;DHT22;45732;52.850;6.896;2023-05-27T02:51:45;8.50;99.90
59855;DHT22;45732;52.850;6.896;2023-05-27T02:54:10;8.50;99.90
59855;DHT22;45732;52.850;6.896;2023-05-27T02:56:36;8.50;99.90
59855;DHT22;45732;52.850;6.896;2023-05-27T02:59:02;8.50;99.90
59855;DHT22;45732;52.850;6.896;2023-05-27T03:01:27;8.50;99.90
59855;DHT22;45732;52.850;6.896;2023-05-27T03:03:53;8.50;99.90
59855;DHT22;45732;52.850;6.896;2023-05-27T03:06:19;8.50;99.90
59855;DHT22;45732;52.850;6.896;2023-05-27T03:08:45;8.50;99.90
59855;DHT22;45732;52.850;6.896;2023-05-27T03:11:11;8.50;99.90
59855;DHT22;45732;52.850;6.896;2023-05-27T03:13:36;8.50;99.90
59855;DHT22;45732;52.850;6.896;2023-05-27T03:16:02;8.60;99.90
59855;DHT22;45732;52.850;6.896;2023-05-27T03:18:28;8.60;99.90
59855;DHT22;45732;52.850;6.896;2023-05-27T03:20:54;8.60;99.90
59855;DHT22;45732;52.850;6.896;2023-05-27T03:23:20;8.60;99.90
59855;DHT22;45732;52.850;6.896;2023-05-27T03:25:45;8.70;99.90
59855;DHT22;45732;52.850;6.896;2023-05-27T03:28:11;8.60;99.90
59855;DHT22;45732;52.850;6.896;2023-05-27T03:30:37;8.70;99.90
59855;DHT22;45732;52.850;6.896;2023-05-27T03:33:03;8.70;99.90
59855;DHT22;45732;52.850;6.896;2023-05-27T03:35:29;8.70;99.90
59855;DHT22;45732;52.850;6.896;2023-05-27T03:37:54;8.70;99.90
59855;DHT22;45732;52.850;6.896;2023-05-27T03:40:20;8.80;99.90
59855;DHT22;45732;52.850;6.896;2023-05-27T03:42:46;8.80;99.90
59855;DHT22;45732;52.850;6.896;2023-05-27T03:45:12;8.90;99.90
59855;DHT22;45732;52.850;6.896;2023-05-27T03:47:37;8.90;99.90
59855;DHT22;45732;52.850;6.896;2023-05-27T03:50:04;8.90;99.90
59855;DHT22;45732;52.850;6.896;2023-05-27T03:52:30;9.00;99.90
59855;DHT22;45732;52.850;6.896;2023-05-27T03:54:56;9.00;99.90
59855;DHT22;45732;52.850;6.896;2023-05-27T03:57:22;9.00;99.90
59855;DHT22;45732;52.850;6.896;2023-05-27T03:59:47;9.10;99.90
59855;DHT22;45732;52.850;6.896;2023-05-27T04:02:13;9.10;99.90
59855;DHT22;45732;52.850;6.896;2023-05-27T04:04:38;9.10;99.90
59855;DHT22;45732;52.850;6.896;2023-05-27T04:07:04;9.10;99.90
59855;DHT22;45732;52.850;6.896;2023-05-27T04:09:30;9.00;99.90
59855;DHT22;45732;52.850;6.896;2023-05-27T04:11:56;9.00;99.90
59855;DHT22;45732;52.850;6.896;2023-05-27T04:14:22;9.00;99.90
59855;DHT22;45732;52.850;6.896;2023-05-27T04:16:47;9.00;99.90
59855;DHT22;45732;52.850;6.896;2023-05-27T04:19:13;9.00;99.90
59855;DHT22;45732;52.850;6.896;2023-05-27T04:21:39;8.90;99.90
59855;DHT22;45732;52.850;6.896;2023-05-27T04:24:05;9.00;99.90
59855;DHT22;45732;52.850;6.896;2023-05-27T04:26:30;8.90;99.90
59855;DHT22;45732;52.850;6.896;2023-05-27T04:28:58;8.90;99.90
59855;DHT22;45732;52.850;6.896;2023-05-27T04:31:25;8.90;99.90
59855;DHT22;45732;52.850;6.896;2023-05-27T04:33:54;9.00;99.90
59855;DHT22;45732;52.850;6.896;2023-05-27T04:36:20;9.00;99.90
59855;DHT22;45732;52.850;6.896;2023-05-27T04:38:51;9.00;99.90
59855;DHT22;45732;52.850;6.896;2023-05-27T04:41:16;9.10;99.90
59855;DHT22;45732;52.850;6.896;2023-05-27T04:43:42;9.10;99.90
59855;DHT22;45732;52.850;6.896;2023-05-27T04:46:08;9.10;99.90
59855;DHT22;45732;52.850;6.896;2023-05-27T04:48:33;9.10;99.90
59855;DHT22;45732;52.850;6.896;2023-05-27T04:51:01;9.20;99.90
59855;DHT22;45732;52.850;6.896;2023-05-27T04:53:27;9.20;99.90
59855;DHT22;45732;52.850;6.896;2023-05-27T04:55:53;9.30;99.90
59855;DHT22;45732;52.850;6.896;2023-05-27T04:58:19;9.30;99.90
59855;DHT22;45732;52.850;6.896;2023-05-27T05:00:45;9.40;99.90
59855;DHT22;45732;52.850;6.896;2023-05-27T05:03:21;9.40;99.90
59855;DHT22;45732;52.850;6.896;2023-05-27T05:05:51;9.40;99.90
59855;DHT22;45732;52.850;6.896;2023-05-27T05:08:18;9.50;99.90
59855;DHT22;45732;52.850;6.896;2023-05-27T05:10:46;9.50;99.90
59855;DHT22;45732;52.850;6.896;2023-05-27T05:13:12;9.60;99.90
59855;DHT22;45732;52.850;6.896;2023-05-27T05:15:39;9.70;99.90
59855;DHT22;45732;52.850;6.896;2023-05-27T05:18:04;9.70;99.90
59855;DHT22;45732;52.850;6.896;2023-05-27T05:20:30;9.80;99.90
59855;DHT22;45732;52.850;6.896;2023-05-27T05:22:57;9.80;99.90
59855;DHT22;45732;52.850;6.896;2023-05-27T05:25:23;9.90;99.90
59855;DHT22;45732;52.850;6.896;2023-05-27T05:27:49;10.00;99.90
59855;DHT22;45732;52.850;6.896;2023-05-27T05:30:14;10.10;99.90
59855;DHT22;45732;52.850;6.896;2023-05-27T05:32:40;10.20;99.90
59855;DHT22;45732;52.850;6.896;2023-05-27T05:35:06;10.30;99.90
59855;DHT22;45732;52.850;6.896;2023-05-27T05:37:32;10.40;99.90
59855;DHT22;45732;52.850;6.896;2023-05-27T05:39:57;10.40;99.90
59855;DHT22;45732;52.850;6.896;2023-05-27T05:42:23;10.50;99.90
59855;DHT22;45732;52.850;6.896;2023-05-27T05:44:51;10.50;99.90
59855;DHT22;45732;52.850;6.896;2023-05-27T05:47:18;10.60;99.90
59855;DHT22;45732;52.850;6.896;2023-05-27T05:49:43;10.60;99.90
59855;DHT22;45732;52.850;6.896;2023-05-27T05:52:09;10.60;99.90
59855;DHT22;45732;52.850;6.896;2023-05-27T05:54:35;10.70;99.90
59855;DHT22;45732;52.850;6.896;2023-05-27T05:57:01;10.70;99.90
59855;DHT22;45732;52.850;6.896;2023-05-27T05:59:28;10.80;99.90
59855;DHT22;45732;52.850;6.896;2023-05-27T06:01:54;10.80;99.90
59855;DHT22;45732;52.850;6.896;2023-05-27T06:04:19;10.80;99.90
59855;DHT22;45732;52.850;6.896;2023-05-27T06:06:45;10.90;99.90
59855;DHT22;45732;52.850;6.896;2023-05-27T06:09:11;10.90;99.90
59855;DHT22;45732;52.850;6.896;2023-05-27T06:11:37;10.90;99.90
59855;DHT22;45732;52.850;6.896;2023-05-27T06:14:03;10.80;99.90
59855;DHT22;45732;52.850;6.896;2023-05-27T06:16:29;10.90;99.90
59855;DHT22;45732;52.850;6.896;2023-05-27T06:18:55;10.90;99.90
59855;DHT22;45732;52.850;6.896;2023-05-27T06:21:21;10.80;99.90
59855;DHT22;45732;52.850;6.896;2023-05-27T06:23:47;10.90;99.90
59855;DHT22;45732;52.850;6.896;2023-05-27T06:26:13;10.90;99.90
59855;DHT22;45732;52.850;6.896;2023-05-27T06:28:39;10.90;99.90
59855;DHT22;45732;52.850;6.896;2023-05-27T06:31:04;11.00;99.90
59855;DHT22;45732;52.850;6.896;2023-05-27T06:33:30;11.00;99.90
59855;DHT22;45732;52.850;6.896;2023-05-27T06:35:56;11.10;99.90
59855;DHT22;45732;52.850;6.896;2023-05-27T06:38:22;11.20;99.90
59855;DHT22;45732;52.850;6.896;2023-05-27T06:40:48;11.30;99.90
59855;DHT22;45732;52.850;6.896;2023-05-27T06:43:14;11.30;99.90
59855;DHT22;45732;52.850;6.896;2023-05-27T06:45:39;11.40;99.90
59855;DHT22;45732;52.850;6.896;2023-05-27T06:48:06;11.50;99.90
59855;DHT22;45732;52.850;6.896;2023-05-27T06:52:59;11.70;99.90
59855;DHT22;45732;52.850;6.896;2023-05-27T06:55:25;11.70;99.90
59855;DHT22;45732;52.850;6.896;2023-05-27T06:57:51;11.80;99.90
59855;DHT22;45732;52.850;6.896;2023-05-27T07:00:16;11.80;99.90
59855;DHT22;45732;52.850;6.896;2023-05-27T07:02:42;11.90;99.90
59855;DHT22;45732;52.850;6.896;2023-05-27T07:05:08;11.90;99.90
59855;DHT22;45732;52.850;6.896;2023-05-27T07:07:34;12.00;99.90
59855;DHT22;45732;52.850;6.896;2023-05-27T07:09:59;12.10;99.90
59855;DHT22;45732;52.850;6.896;2023-05-27T07:12:25;12.10;99.90
59855;DHT22;45732;52.850;6.896;2023-05-27T07:14:51;12.10;99.90
59855;DHT22;45732;52.850;6.896;2023-05-27T07:17:16;12.20;99.90
59855;DHT22;45732;52.850;6.896;2023-05-27T07:19:42;12.30;99.90
59855;DHT22;45732;52.850;6.896;2023-05-27T07:22:08;12.30;99.90
59855;DHT22;45732;52.850;6.896;2023-05-27T07:24:33;12.40;99.90
59855;DHT22;45732;52.850;6.896;2023-05-27T07:26:59;12.40;99.90
59855;DHT22;45732;52.850;6.896;2023-05-27T07:29:25;12.50;99.90
59855;DHT22;45732;52.850;6.896;2023-05-27T07:31:51;12.60;99.90
59855;DHT22;45732;52.850;6.896;2023-05-27T07:34:16;12.70;99.90
59855;DHT22;45732;52.850;6.896;2023-05-27T07:36:42;12.80;99.90
59855;DHT22;45732;52.850;6.896;2023-05-27T07:39:08;12.80;99.90
59855;DHT22;45732;52.850;6.896;2023-05-27T07:41:33;12.80;99.90
59855;DHT22;45732;52.850;6.896;2023-05-27T07:43:59;12.90;99.90
59855;DHT22;45732;52.850;6.896;2023-05-27T07:46:25;13.00;99.90
59855;DHT22;45732;52.850;6.896;2023-05-27T07:48:51;13.10;99.90
59855;DHT22;45732;52.850;6.896;2023-05-27T07:51:16;13.10;99.90
59855;DHT22;45732;52.850;6.896;2023-05-27T07:53:42;13.10;99.90
59855;DHT22;45732;52.850;6.896;2023-05-27T07:56:08;13.20;99.90
59855;DHT22;45732;52.850;6.896;2023-05-27T07:58:33;13.20;99.90
59855;DHT22;45732;52.850;6.896;2023-05-27T08:00:59;13.30;99.90
59855;DHT22;45732;52.850;6.896;2023-05-27T08:03:25;13.50;99.90
59855;DHT22;45732;52.850;6.896;2023-05-27T08:05:50;13.50;99.90
59855;DHT22;45732;52.850;6.896;2023-05-27T08:08:16;13.50;99.90
59855;DHT22;45732;52.850;6.896;2023-05-27T08:10:42;13.60;99.90
59855;DHT22;45732;52.850;6.896;2023-05-27T08:13:09;13.70;99.90
59855;DHT22;45732;52.850;6.896;2023-05-27T08:15:35;13.80;99.90
59855;DHT22;45732;52.850;6.896;2023-05-27T08:18:01;13.90;99.90
59855;DHT22;45732;52.850;6.896;2023-05-27T08:20:27;13.90;99.90
59855;DHT22;45732;52.850;6.896;2023-05-27T08:22:53;13.90;99.90
59855;DHT22;45732;52.850;6.896;2023-05-27T08:25:18;14.00;99.90
59855;DHT22;45732;52.850;6.896;2023-05-27T08:27:53;14.00;99.90
59855;DHT22;45732;52.850;6.896;2023-05-27T08:30:19;14.10;99.90
59855;DHT22;45732;52.850;6.896;2023-05-27T08:32:45;14.20;99.90
59855;DHT22;45732;52.850;6.896;2023-05-27T08:35:11;14.20;99.90
59855;DHT22;45732;52.850;6.896;2023-05-27T08:37:38;14.30;99.90
59855;DHT22;45732;52.850;6.896;2023-05-27T08:40:06;14.30;99.90
59855;DHT22;45732;52.850;6.896;2023-05-27T08:42:33;14.40;99.90
59855;DHT22;45732;52.850;6.896;2023-05-27T08:44:59;14.40;99.90
59855;DHT22;45732;52.850;6.896;2023-05-27T08:47:29;14.40;99.90
59855;DHT22;45732;52.850;6.896;2023-05-27T08:49:57;14.50;99.90
59855;DHT22;45732;52.850;6.896;2023-05-27T08:52:29;14.60;99.90
59855;DHT22;45732;52.850;6.896;2023-05-27T08:54:56;14.60;99.90
59855;DHT22;45732;52.850;6.896;2023-05-27T08:57:31;14.60;99.90
59855;DHT22;45732;52.850;6.896;2023-05-27T08:59:57;14.70;99.90
59855;DHT22;45732;52.850;6.896;2023-05-27T09:02:24;14.70;99.90
59855;DHT22;45732;52.850;6.896;2023-05-27T09:04:50;14.70;99.90
59855;DHT22;45732;52.850;6.896;2023-05-27T09:07:17;14.80;99.90
59855;DHT22;45732;52.850;6.896;2023-05-27T09:09:54;14.90;99.90
59855;DHT22;45732;52.850;6.896;2023-05-27T09:12:25;15.00;99.90
59855;DHT22;45732;52.850;6.896;2023-05-27T09:14:51;15.10;99.90
59855;DHT22;45732;52.850;6.896;2023-05-27T09:17:17;15.20;99.90
59855;DHT22;45732;52.850;6.896;2023-05-27T09:19:45;15.30;99.90
59855;DHT22;45732;52.850;6.896;2023-05-27T09:22:38;15.40;99.90
59855;DHT22;45732;52.850;6.896;2023-05-27T09:25:04;15.50;99.90
59855;DHT22;45732;52.850;6.896;2023-05-27T09:27:32;15.60;99.90
59855;DHT22;45732;52.850;6.896;2023-05-27T09:30:05;15.70;99.90
59855;DHT22;45732;52.850;6.896;2023-05-27T09:32:32;15.70;99.90
59855;DHT22;45732;52.850;6.896;2023-05-27T09:35:00;15.80;99.90
59855;DHT22;45732;52.850;6.896;2023-05-27T09:37:31;15.90;99.90
59855;DHT22;45732;52.850;6.896;2023-05-27T09:40:04;16.00;99.90
59855;DHT22;45732;52.850;6.896;2023-05-27T09:45:06;16.10;99.90
59855;DHT22;45732;52.850;6.896;2023-05-27T09:47:41;16.20;99.90
59855;DHT22;45732;52.850;6.896;2023-05-27T09:50:08;16.30;99.90
59855;DHT22;45732;52.850;6.896;2023-05-27T09:52:38;16.40;99.90
59855;DHT22;45732;52.850;6.896;2023-05-27T09:55:06;16.40;99.90
59855;DHT22;45732;52.850;6.896;2023-05-27T09:57:34;16.50;99.90
59855;DHT22;45732;52.850;6.896;2023-05-27T10:00:03;16.50;99.90
59855;DHT22;45732;52.850;6.896;2023-05-27T10:02:40;16.60;99.90
59855;DHT22;45732;52.850;6.896;2023-05-27T10:05:07;16.70;99.90
59855;DHT22;45732;52.850;6.896;2023-05-27T10:07:38;16.90;99.90
59855;DHT22;45732;52.850;6.896;2023-05-27T10:10:09;16.90;99.90
59855;DHT22;45732;52.850;6.896;2023-05-27T10:12:46;17.10;99.90
59855;DHT22;45732;52.850;6.896;2023-05-27T10:15:28;17.10;99.90
59855;DHT22;45732;52.850;6.896;2023-05-27T10:17:56;17.10;99.90
59855;DHT22;45732;52.850;6.896;2023-05-27T10:22:53;17.20;99.90
59855;DHT22;45732;52.850;6.896;2023-05-27T10:25:19;17.20;99.90
59855;DHT22;45732;52.850;6.896;2023-05-27T10:27:46;17.30;99.90
59855;DHT22;45732;52.850;6.896;2023-05-27T10:30:13;17.40;99.90
59855;DHT22;45732;52.850;6.896;2023-05-27T10:32:44;17.40;99.90
59855;DHT22;45732;52.850;6.896;2023-05-27T10:35:12;17.40;99.90
59855;DHT22;45732;52.850;6.896;2023-05-27T10:37:38;17.50;99.90
59855;DHT22;45732;52.850;6.896;2023-05-27T10:40:07;17.60;99.90
59855;DHT22;45732;52.850;6.896;2023-05-27T10:42:33;17.70;99.90
59855;DHT22;45732;52.850;6.896;2023-05-27T10:45:09;17.80;99.90
59855;DHT22;45732;52.850;6.896;2023-05-27T10:47:36;17.80;99.90
59855;DHT22;45732;52.850;6.896;2023-05-27T10:50:12;17.90;99.90
59855;DHT22;45732;52.850;6.896;2023-05-27T10:52:40;17.90;99.90
59855;DHT22;45732;52.850;6.896;2023-05-27T10:55:06;18.00;99.90
59855;DHT22;45732;52.850;6.896;2023-05-27T10:57:32;18.10;99.90
59855;DHT22;45732;52.850;6.896;2023-05-27T11:00:03;18.10;99.90
59855;DHT22;45732;52.850;6.896;2023-05-27T11:02:32;18.10;99.90
59855;DHT22;45732;52.850;6.896;2023-05-27T11:05:00;18.10;99.90
59855;DHT22;45732;52.850;6.896;2023-05-27T11:07:26;18.20;99.90
59855;DHT22;45732;52.850;6.896;2023-05-27T11:09:54;18.20;99.90
59855;DHT22;45732;52.850;6.896;2023-05-27T11:12:21;18.30;99.90
59855;DHT22;45732;52.850;6.896;2023-05-27T11:14:56;18.30;99.90
59855;DHT22;45732;52.850;6.896;2023-05-27T11:17:22;18.40;99.90
59855;DHT22;45732;52.850;6.896;2023-05-27T11:19:49;18.40;99.90
59855;DHT22;45732;52.850;6.896;2023-05-27T11:22:16;18.50;99.90
59855;DHT22;45732;52.850;6.896;2023-05-27T11:24:43;18.60;99.90
59855;DHT22;45732;52.850;6.896;2023-05-27T11:27:13;18.60;99.90
59855;DHT22;45732;52.850;6.896;2023-05-27T11:29:50;18.70;99.90
59855;DHT22;45732;52.850;6.896;2023-05-27T11:32:17;18.80;99.90
59855;DHT22;45732;52.850;6.896;2023-05-27T11:34:46;18.90;99.90
59855;DHT22;45732;52.850;6.896;2023-05-27T11:37:12;18.90;99.90
59855;DHT22;45732;52.850;6.896;2023-05-27T11:39:49;19.00;99.90
59855;DHT22;45732;52.850;6.896;2023-05-27T11:42:23;19.00;99.90
59855;DHT22;45732;52.850;6.896;2023-05-27T11:44:51;19.10;99.90
59855;DHT22;45732;52.850;6.896;2023-05-27T11:47:17;19.10;99.90
59855;DHT22;45732;52.850;6.896;2023-05-27T11:49:43;19.20;99.90
59855;DHT22;45732;52.850;6.896;2023-05-27T11:52:10;19.30;99.90
59855;DHT22;45732;52.850;6.896;2023-05-27T11:54:37;19.30;99.90
59855;DHT22;45732;52.850;6.896;2023-05-27T11:57:03;19.30;99.90
59855;DHT22;45732;52.850;6.896;2023-05-27T11:59:34;19.30;99.90
59855;DHT22;45732;52.850;6.896;2023-05-27T12:02:00;19.40;99.90
59855;DHT22;45732;52.850;6.896;2023-05-27T12:04:26;19.40;99.90
59855;DHT22;45732;52.850;6.896;2023-05-27T12:06:51;19.50;99.90
59855;DHT22;45732;52.850;6.896;2023-05-27T12:09:17;19.50;99.90
59855;DHT22;45732;52.850;6.896;2023-05-27T12:11:43;19.40;99.90
59855;DHT22;45732;52.850;6.896;2023-05-27T12:14:09;19.50;99.90
59855;DHT22;45732;52.850;6.896;2023-05-27T12:16:34;19.40;99.90
59855;DHT22;45732;52.850;6.896;2023-05-27T12:19:00;19.50;99.90
59855;DHT22;45732;52.850;6.896;2023-05-27T12:21:26;19.50;99.90
59855;DHT22;45732;52.850;6.896;2023-05-27T12:23:52;19.60;99.90
59855;DHT22;45732;52.850;6.896;2023-05-27T12:26:18;19.60;99.90
59855;DHT22;45732;52.850;6.896;2023-05-27T12:28:44;19.50;99.90
59855;DHT22;45732;52.850;6.896;2023-05-27T12:31:10;19.50;99.90
59855;DHT22;45732;52.850;6.896;2023-05-27T12:33:36;19.50;99.90
59855;DHT22;45732;52.850;6.896;2023-05-27T12:36:02;19.50;99.90
59855;DHT22;45732;52.850;6.896;2023-05-27T12:38:30;19.50;99.90
59855;DHT22;45732;52.850;6.896;2023-05-27T12:40:56;19.60;99.90
59855;DHT22;45732;52.850;6.896;2023-05-27T12:43:23;19.60;99.90
59855;DHT22;45732;52.850;6.896;2023-05-27T12:45:49;19.60;99.90
59855;DHT22;45732;52.850;6.896;2023-05-27T12:48:16;19.70;99.90
59855;DHT22;45732;52.850;6.896;2023-05-27T12:50:43;19.60;99.90
59855;DHT22;45732;52.850;6.896;2023-05-27T12:53:09;19.60;99.90
59855;DHT22;45732;52.850;6.896;2023-05-27T12:55:35;19.50;99.90
59855;DHT22;45732;52.850;6.896;2023-05-27T12:58:02;19.50;99.90
59855;DHT22;45732;52.850;6.896;2023-05-27T13:00:28;19.50;99.90
59855;DHT22;45732;52.850;6.896;2023-05-27T13:02:54;19.50;99.90
59855;DHT22;45732;52.850;6.896;2023-05-27T13:05:20;19.40;99.90
59855;DHT22;45732;52.850;6.896;2023-05-27T13:07:58;19.40;99.90
59855;DHT22;45732;52.850;6.896;2023-05-27T13:10:25;19.40;99.90
59855;DHT22;45732;52.850;6.896;2023-05-27T13:12:51;19.50;99.90
59855;DHT22;45732;52.850;6.896;2023-05-27T13:15:17;19.40;99.90
59855;DHT22;45732;52.850;6.896;2023-05-27T13:17:47;19.30;99.90
59855;DHT22;45732;52.850;6.896;2023-05-27T13:20:14;19.30;99.90
59855;DHT22;45732;52.850;6.896;2023-05-27T13:22:40;19.30;99.90
59855;DHT22;45732;52.850;6.896;2023-05-27T13:25:07;19.30;99.90
59855;DHT22;45732;52.850;6.896;2023-05-27T13:27:32;19.30;99.90
59855;DHT22;45732;52.850;6.896;2023-05-27T13:29:58;19.30;99.90
59855;DHT22;45732;52.850;6.896;2023-05-27T13:32:24;19.20;99.90
59855;DHT22;45732;52.850;6.896;2023-05-27T13:34:50;19.20;99.90
59855;DHT22;45732;52.850;6.896;2023-05-27T13:37:17;19.30;99.90
59855;DHT22;45732;52.850;6.896;2023-05-27T13:39:43;19.30;99.90
59855;DHT22;45732;52.850;6.896;2023-05-27T13:42:09;19.30;99.90
59855;DHT22;45732;52.850;6.896;2023-05-27T13:44:35;19.30;99.90
59855;DHT22;45732;52.850;6.896;2023-05-27T13:47:02;19.20;99.90
59855;DHT22;45732;52.850;6.896;2023-05-27T13:49:28;19.30;99.90
59855;DHT22;45732;52.850;6.896;2023-05-27T13:51:53;19.30;99.90
59855;DHT22;45732;52.850;6.896;2023-05-27T13:54:19;19.30;99.90
59855;DHT22;45732;52.850;6.896;2023-05-27T13:56:45;19.30;99.90
59855;DHT22;45732;52.850;6.896;2023-05-27T13:59:11;19.30;99.90
59855;DHT22;45732;52.850;6.896;2023-05-27T14:01:39;19.30;99.90
59855;DHT22;45732;52.850;6.896;2023-05-27T14:04:04;19.30;99.90
59855;DHT22;45732;52.850;6.896;2023-05-27T14:06:30;19.30;99.90
59855;DHT22;45732;52.850;6.896;2023-05-27T14:08:56;19.30;99.90
59855;DHT22;45732;52.850;6.896;2023-05-27T14:11:22;19.40;99.90
59855;DHT22;45732;52.850;6.896;2023-05-27T14:13:48;19.50;99.90
59855;DHT22;45732;52.850;6.896;2023-05-27T14:16:14;19.50;99.90
59855;DHT22;45732;52.850;6.896;2023-05-27T14:18:40;19.50;99.90
59855;DHT22;45732;52.850;6.896;2023-05-27T14:21:07;19.50;99.90
59855;DHT22;45732;52.850;6.896;2023-05-27T14:23:33;19.50;99.90
59855;DHT22;45732;52.850;6.896;2023-05-27T14:25:59;19.50;99.90
59855;DHT22;45732;52.850;6.896;2023-05-27T14:28:24;19.60;99.90
59855;DHT22;45732;52.850;6.896;2023-05-27T14:30:50;19.60;99.90
59855;DHT22;45732;52.850;6.896;2023-05-27T14:33:16;19.60;99.90
59855;DHT22;45732;52.850;6.896;2023-05-27T14:35:42;19.60;99.90
59855;DHT22;45732;52.850;6.896;2023-05-27T14:38:10;19.60;99.90
59855;DHT22;45732;52.850;6.896;2023-05-27T14:40:36;19.60;99.90
59855;DHT22;45732;52.850;6.896;2023-05-27T14:43:02;19.60;99.90
59855;DHT22;45732;52.850;6.896;2023-05-27T14:45:28;19.70;99.90
59855;DHT22;45732;52.850;6.896;2023-05-27T14:47:53;19.70;99.90
59855;DHT22;45732;52.850;6.896;2023-05-27T14:50:23;19.70;99.90
59855;DHT22;45732;52.850;6.896;2023-05-27T14:52:50;19.70;99.90
59855;DHT22;45732;52.850;6.896;2023-05-27T14:55:16;19.70;99.90
59855;DHT22;45732;52.850;6.896;2023-05-27T14:57:42;19.70;99.90
59855;DHT22;45732;52.850;6.896;2023-05-27T15:00:08;19.70;99.90
59855;DHT22;45732;52.850;6.896;2023-05-27T15:02:37;19.70;99.90
59855;DHT22;45732;52.850;6.896;2023-05-27T15:05:03;19.70;99.90
59855;DHT22;45732;52.850;6.896;2023-05-27T15:07:33;19.80;99.90
59855;DHT22;45732;52.850;6.896;2023-05-27T15:09:59;19.80;99.90
59855;DHT22;45732;52.850;6.896;2023-05-27T15:12:27;19.80;99.90
59855;DHT22;45732;52.850;6.896;2023-05-27T15:14:53;19.80;99.90
59855;DHT22;45732;52.850;6.896;2023-05-27T15:17:19;19.80;99.90
59855;DHT22;45732;52.850;6.896;2023-05-27T15:19:46;19.90;99.90
59855;DHT22;45732;52.850;6.896;2023-05-27T15:22:12;20.00;99.90
59855;DHT22;45732;52.850;6.896;2023-05-27T15:24:37;20.10;99.90
59855;DHT22;45732;52.850;6.896;2023-05-27T15:27:03;20.10;99.90
59855;DHT22;45732;52.850;6.896;2023-05-27T15:29:29;20.10;99.90
59855;DHT22;45732;52.850;6.896;2023-05-27T15:31:55;20.20;99.90
59855;DHT22;45732;52.850;6.896;2023-05-27T15:34:20;20.20;99.90
59855;DHT22;45732;52.850;6.896;2023-05-27T15:36:46;20.40;99.90
59855;DHT22;45732;52.850;6.896;2023-05-27T15:39:11;20.40;99.90
59855;DHT22;45732;52.850;6.896;2023-05-27T15:41:37;20.50;99.90
59855;DHT22;45732;52.850;6.896;2023-05-27T15:44:04;20.60;99.90